createdAt,value
2018-07-21T00:02:28.172Z,19.95
2018-07-21T00:04:56.663Z,19.98
2018-07-21T00:07:26.075Z,20.02
2018-07-21T00:09:54.577Z,20.16
2018-07-21T00:12:23.121Z,20.35
2018-07-21T00:14:51.630Z,20.43
2018-07-21T00:17:20.187Z,20.58
2018-07-21T00:19:48.786Z,20.65
2018-07-21T00:22:17.353Z,20.80
2018-07-21T00:24:45.862Z,20.85
2018-07-21T00:27:14.481Z,20.93
2018-07-21T00:29:42.981Z,20.97
2018-07-21T00:32:11.494Z,20.92
2018-07-21T00:34:39.982Z,20.90
2018-07-21T00:37:08.542Z,20.88
2018-07-21T00:39:37.075Z,20.82
2018-07-21T00:42:05.634Z,20.85
2018-07-21T00:44:34.145Z,20.63
2018-07-21T00:47:02.758Z,20.56
2018-07-21T00:49:31.297Z,20.61
2018-07-21T00:51:59.867Z,20.54
2018-07-21T00:54:28.457Z,20.52
2018-07-21T00:56:56.982Z,20.51
2018-07-21T00:59:26.772Z,20.43
2018-07-21T01:01:55.282Z,20.35
2018-07-21T01:04:23.777Z,20.39
2018-07-21T01:06:52.310Z,20.39
2018-07-21T01:09:20.863Z,20.30
2018-07-21T01:11:49.426Z,20.30
2018-07-21T01:14:17.943Z,20.05
2018-07-21T01:16:46.521Z,20.12
2018-07-21T01:19:15.069Z,20.19
2018-07-21T01:21:43.598Z,20.21
2018-07-21T01:24:12.214Z,20.26
2018-07-21T01:26:40.789Z,20.19
2018-07-21T01:29:09.396Z,20.27
2018-07-21T01:31:37.963Z,20.36
2018-07-21T01:34:07.321Z,20.33
2018-07-21T01:36:35.861Z,20.14
2018-07-21T01:39:06.279Z,20.07
2018-07-21T01:41:34.790Z,20.03
2018-07-21T01:44:03.335Z,19.80
2018-07-21T01:46:31.898Z,19.73
2018-07-21T01:49:00.442Z,19.59
2018-07-21T01:51:28.995Z,19.64
2018-07-21T01:53:57.654Z,19.67
2018-07-21T01:56:26.418Z,19.77
2018-07-21T01:58:54.930Z,19.72
2018-07-21T02:01:23.485Z,19.72
2018-07-21T02:03:51.978Z,19.77
2018-07-21T02:06:20.505Z,19.67
2018-07-21T02:08:49.026Z,19.79
2018-07-21T02:11:17.541Z,19.78
2018-07-21T02:13:46.099Z,19.84
2018-07-21T02:16:14.618Z,19.97
2018-07-21T02:18:43.185Z,19.97
2018-07-21T02:21:11.814Z,19.97
2018-07-21T02:23:40.393Z,20.03
2018-07-21T02:26:08.953Z,19.90
2018-07-21T02:28:37.489Z,19.94
2018-07-21T02:31:06.065Z,19.78
2018-07-21T02:33:34.649Z,19.73
2018-07-21T02:36:03.162Z,19.78
2018-07-21T02:38:31.728Z,19.62
2018-07-21T02:41:00.265Z,19.37
2018-07-21T02:43:28.897Z,19.27
2018-07-21T02:45:57.444Z,19.20
2018-07-21T02:48:26.009Z,19.08
2018-07-21T02:50:54.532Z,19.17
2018-07-21T02:53:23.103Z,19.23
2018-07-21T02:55:51.634Z,19.20
2018-07-21T02:58:20.174Z,19.11
2018-07-21T03:00:48.673Z,19.08
2018-07-21T03:03:17.282Z,19.07
2018-07-21T03:05:45.788Z,19.10
2018-07-21T03:08:15.103Z,19.26
2018-07-21T03:10:43.988Z,19.35
2018-07-21T03:13:12.526Z,19.40
2018-07-21T03:15:41.127Z,19.36
2018-07-21T03:18:09.677Z,19.29
2018-07-21T03:20:38.199Z,19.48
2018-07-21T03:23:07.219Z,19.39
2018-07-21T03:25:36.755Z,19.38
2018-07-21T03:28:05.357Z,19.48
2018-07-21T03:30:33.871Z,19.68
2018-07-21T03:33:02.438Z,19.63
2018-07-21T03:35:30.917Z,19.63
2018-07-21T03:37:59.418Z,19.73
2018-07-21T03:40:27.994Z,19.70
2018-07-21T03:42:56.796Z,19.72
2018-07-21T03:45:25.876Z,19.91
2018-07-21T03:47:54.510Z,19.86
2018-07-21T03:50:23.650Z,19.87
2018-07-21T03:52:52.169Z,19.90
2018-07-21T03:55:20.738Z,20.00
2018-07-21T03:57:49.302Z,20.00
2018-07-21T04:00:17.845Z,20.07
2018-07-21T04:02:46.391Z,20.30
2018-07-21T04:05:14.922Z,20.25
2018-07-21T04:07:44.385Z,20.37
2018-07-21T04:10:12.914Z,20.28
2018-07-21T04:12:42.078Z,20.55
2018-07-21T04:15:10.599Z,20.62
2018-07-21T04:17:39.689Z,20.72
2018-07-21T04:20:08.239Z,20.87
2018-07-21T04:22:36.728Z,20.83
2018-07-21T04:25:05.622Z,20.82
2018-07-21T04:27:34.162Z,20.85
2018-07-21T04:30:02.788Z,20.72
2018-07-21T04:32:31.317Z,20.76
2018-07-21T04:34:59.918Z,20.99
2018-07-21T04:37:28.509Z,20.98
2018-07-21T04:39:57.026Z,21.00
2018-07-21T04:42:25.565Z,21.03
2018-07-21T04:44:54.137Z,21.24
2018-07-21T04:47:22.665Z,21.19
2018-07-21T04:49:51.226Z,21.25
2018-07-21T04:52:19.750Z,21.40
2018-07-21T04:54:48.286Z,21.58
2018-07-21T04:57:16.877Z,21.86
2018-07-21T04:59:45.428Z,21.95
2018-07-21T05:02:14.897Z,22.08
2018-07-21T05:04:43.445Z,22.30
2018-07-21T05:07:12.283Z,22.38
2018-07-21T05:09:40.834Z,22.40
2018-07-21T05:12:09.361Z,22.55
2018-07-21T05:14:37.931Z,22.78
2018-07-21T05:17:07.179Z,22.77
2018-07-21T05:19:36.461Z,22.77
2018-07-21T05:22:05.035Z,22.80
2018-07-21T05:24:33.601Z,22.72
2018-07-21T05:27:02.138Z,22.88
2018-07-21T05:29:31.425Z,22.95
2018-07-21T05:32:00.014Z,22.98
2018-07-21T05:34:29.722Z,22.97
2018-07-21T05:36:59.234Z,22.85
2018-07-21T05:39:28.691Z,22.82
2018-07-21T05:41:57.222Z,22.86
2018-07-21T05:44:26.547Z,22.94
2018-07-21T05:46:55.131Z,22.94
2018-07-21T05:49:23.698Z,22.83
2018-07-21T05:51:52.286Z,22.98
2018-07-21T05:54:20.822Z,22.80
2018-07-21T05:56:50.221Z,22.67
2018-07-21T05:59:18.917Z,22.23
2018-07-21T06:01:47.465Z,21.65
2018-07-21T06:04:16.222Z,21.47
2018-07-21T06:06:44.785Z,21.34
2018-07-21T06:09:13.925Z,21.13
2018-07-21T06:11:42.467Z,21.14
2018-07-21T06:14:12.231Z,21.16
2018-07-21T06:16:40.830Z,21.38
2018-07-21T06:19:09.351Z,21.61
2018-07-21T06:21:38.407Z,21.52
2018-07-21T06:24:06.937Z,21.59
2018-07-21T06:26:35.724Z,21.62
2018-07-21T06:29:04.298Z,21.77
2018-07-21T06:31:32.874Z,21.88
2018-07-21T06:34:01.408Z,21.93
2018-07-21T06:36:30.956Z,22.11
2018-07-21T06:38:59.818Z,22.45
2018-07-21T06:41:29.457Z,22.89
2018-07-21T06:43:58.094Z,23.04
2018-07-21T06:46:26.666Z,23.02
2018-07-21T06:48:55.190Z,23.23
2018-07-21T06:51:23.811Z,23.19
2018-07-21T06:53:52.381Z,23.61
2018-07-21T06:56:21.073Z,23.78
2018-07-21T06:58:51.328Z,24.00
2018-07-21T07:01:20.773Z,23.96
2018-07-21T07:03:49.345Z,23.76
2018-07-21T07:06:17.899Z,23.60
2018-07-21T07:08:46.422Z,23.90
2018-07-21T07:11:16.164Z,23.58
2018-07-21T07:13:44.703Z,23.58
2018-07-21T07:16:13.407Z,23.78
2018-07-21T07:18:42.514Z,23.84
2018-07-21T07:21:11.353Z,23.79
2018-07-21T07:23:40.175Z,23.94
2018-07-21T07:26:09.258Z,23.64
2018-07-21T07:28:38.919Z,23.78
2018-07-21T07:31:07.569Z,23.83
2018-07-21T07:33:36.917Z,24.05
2018-07-21T07:36:05.594Z,24.05
2018-07-21T07:38:36.328Z,24.06
2018-07-21T07:41:04.892Z,24.15
2018-07-21T07:43:33.663Z,24.47
2018-07-21T07:46:02.366Z,24.34
2018-07-21T07:48:30.917Z,24.20
2018-07-21T07:50:59.506Z,24.45
2018-07-21T07:53:28.131Z,24.13
2018-07-21T07:55:57.650Z,24.45
2018-07-21T07:58:26.347Z,24.59
2018-07-21T08:00:54.946Z,24.90
2018-07-21T08:03:23.746Z,25.15
2018-07-21T08:05:52.322Z,25.24
2018-07-21T08:08:20.907Z,25.18
2018-07-21T08:10:49.433Z,24.90
2018-07-21T08:13:17.990Z,25.18
2018-07-21T08:15:46.586Z,25.46
2018-07-21T08:18:15.130Z,25.84
2018-07-21T08:20:43.748Z,25.82
2018-07-21T08:23:12.319Z,25.85
2018-07-21T08:25:40.828Z,26.11
2018-07-21T08:28:09.526Z,25.49
2018-07-21T08:30:38.078Z,25.68
2018-07-21T08:33:06.748Z,25.40
2018-07-21T08:35:35.322Z,25.20
2018-07-21T08:38:04.533Z,25.48
2018-07-21T08:40:33.105Z,25.29
2018-07-21T08:43:01.638Z,25.19
2018-07-21T08:45:30.135Z,24.82
2018-07-21T08:47:58.644Z,24.65
2018-07-21T08:50:27.131Z,24.66
2018-07-21T08:52:55.642Z,24.77
2018-07-21T08:55:24.134Z,24.99
2018-07-21T08:57:55.675Z,25.17
2018-07-21T09:00:24.161Z,25.31
2018-07-21T09:02:52.671Z,25.25
2018-07-21T09:05:21.186Z,25.29
2018-07-21T09:07:57.060Z,25.18
2018-07-21T09:10:25.555Z,25.43
2018-07-21T09:12:54.081Z,25.57
2018-07-21T09:15:22.550Z,26.00
2018-07-21T09:17:56.152Z,26.31
2018-07-21T09:20:24.609Z,26.14
2018-07-21T09:22:53.126Z,26.14
2018-07-21T09:25:21.634Z,26.43
2018-07-21T09:27:53.516Z,26.58
2018-07-21T09:30:22.002Z,26.21
2018-07-21T09:32:50.510Z,26.43
2018-07-21T09:35:19.314Z,26.60
2018-07-21T09:37:47.822Z,26.65
2018-07-21T09:40:16.363Z,26.48
2018-07-21T09:42:44.913Z,26.47
2018-07-21T09:45:13.410Z,26.69
2018-07-21T09:47:41.939Z,26.68
2018-07-21T09:50:10.927Z,26.59
2018-07-21T09:52:39.850Z,26.81
2018-07-21T09:55:09.430Z,26.50
2018-07-21T09:57:38.482Z,26.99
2018-07-21T10:00:09.091Z,27.14
2018-07-21T10:02:37.730Z,27.50
2018-07-21T10:05:06.220Z,27.27
2018-07-21T10:07:34.754Z,27.50
2018-07-21T10:10:03.594Z,27.81
2018-07-21T10:12:32.151Z,28.30
2018-07-21T10:15:00.624Z,28.58
2018-07-21T10:17:29.119Z,29.19
2018-07-21T10:19:57.607Z,30.23
2018-07-21T10:22:26.546Z,29.65
2018-07-21T10:25:00.506Z,29.78
2018-07-21T10:27:34.394Z,29.74
2018-07-21T10:30:02.871Z,29.71
2018-07-21T10:32:37.125Z,29.38
2018-07-21T10:35:06.363Z,28.72
2018-07-21T10:37:34.893Z,28.57
2018-07-21T10:40:03.556Z,28.35
2018-07-21T10:42:32.074Z,27.82
2018-07-21T10:45:01.154Z,27.50
